sensor_id;sensor_type;location;lat;lon;timestamp;P1;durP1;ratioP1;P2;durP2;ratioP2
3379;SDS011;1703;51.964;7.642;2022-09-29T00:00:50;12.93;;;11.20;;
3379;SDS011;1703;51.964;7.642;2022-09-29T00:03:18;12.70;;;10.47;;
3379;SDS011;1703;51.964;7.642;2022-09-29T00:05:45;14.00;;;10.57;;
3379;SDS011;1703;51.964;7.642;2022-09-29T00:08:14;15.97;;;10.80;;
3379;SDS011;1703;51.964;7.642;2022-09-29T00:10:42;16.20;;;10.63;;
3379;SDS011;1703;51.964;7.642;2022-09-29T00:13:10;12.43;;;10.70;;
3379;SDS011;1703;51.964;7.642;2022-09-29T00:15:38;12.57;;;10.30;;
3379;SDS011;1703;51.964;7.642;2022-09-29T00:18:05;14.77;;;10.60;;
3379;SDS011;1703;51.964;7.642;2022-09-29T00:20:33;15.33;;;11.67;;
3379;SDS011;1703;51.964;7.642;2022-09-29T00:23:00;13.67;;;11.00;;
3379;SDS011;1703;51.964;7.642;2022-09-29T00:25:28;13.90;;;11.83;;
3379;SDS011;1703;51.964;7.642;2022-09-29T00:27:55;15.33;;;12.20;;
3379;SDS011;1703;51.964;7.642;2022-09-29T00:30:23;14.00;;;11.47;;
3379;SDS011;1703;51.964;7.642;2022-09-29T00:32:49;15.23;;;11.07;;
3379;SDS011;1703;51.964;7.642;2022-09-29T00:35:16;13.00;;;11.03;;
3379;SDS011;1703;51.964;7.642;2022-09-29T00:37:43;15.17;;;12.40;;
3379;SDS011;1703;51.964;7.642;2022-09-29T00:40:10;19.70;;;11.53;;
3379;SDS011;1703;51.964;7.642;2022-09-29T00:42:37;11.67;;;10.50;;
3379;SDS011;1703;51.964;7.642;2022-09-29T00:45:15;18.70;;;11.70;;
3379;SDS011;1703;51.964;7.642;2022-09-29T00:47:46;12.23;;;11.00;;
3379;SDS011;1703;51.964;7.642;2022-09-29T00:50:17;14.43;;;11.90;;
3379;SDS011;1703;51.964;7.642;2022-09-29T00:52:47;11.80;;;10.57;;
3379;SDS011;1703;51.964;7.642;2022-09-29T00:55:18;15.23;;;11.63;;
3379;SDS011;1703;51.964;7.642;2022-09-29T00:57:51;18.20;;;12.53;;
3379;SDS011;1703;51.964;7.642;2022-09-29T01:00:21;15.83;;;12.83;;
3379;SDS011;1703;51.964;7.642;2022-09-29T01:02:51;15.27;;;12.57;;
3379;SDS011;1703;51.964;7.642;2022-09-29T01:05:21;16.30;;;12.43;;
3379;SDS011;1703;51.964;7.642;2022-09-29T01:07:51;18.03;;;14.40;;
3379;SDS011;1703;51.964;7.642;2022-09-29T01:10:18;15.20;;;12.40;;
3379;SDS011;1703;51.964;7.642;2022-09-29T01:12:46;15.07;;;11.80;;
3379;SDS011;1703;51.964;7.642;2022-09-29T01:15:15;16.00;;;13.37;;
3379;SDS011;1703;51.964;7.642;2022-09-29T01:17:44;16.00;;;12.47;;
3379;SDS011;1703;51.964;7.642;2022-09-29T01:20:13;14.87;;;10.80;;
3379;SDS011;1703;51.964;7.642;2022-09-29T01:22:50;16.13;;;12.77;;
3379;SDS011;1703;51.964;7.642;2022-09-29T01:25:47;13.30;;;11.87;;
3379;SDS011;1703;51.964;7.642;2022-09-29T01:28:35;17.53;;;12.53;;
3379;SDS011;1703;51.964;7.642;2022-09-29T01:31:20;17.77;;;12.20;;
3379;SDS011;1703;51.964;7.642;2022-09-29T01:33:56;19.23;;;14.07;;
3379;SDS011;1703;51.964;7.642;2022-09-29T01:36:32;15.17;;;13.67;;
3379;SDS011;1703;51.964;7.642;2022-09-29T01:39:09;16.57;;;13.27;;
3379;SDS011;1703;51.964;7.642;2022-09-29T01:41:43;19.00;;;14.13;;
3379;SDS011;1703;51.964;7.642;2022-09-29T01:44:16;16.50;;;13.20;;
3379;SDS011;1703;51.964;7.642;2022-09-29T01:46:49;16.50;;;12.77;;
3379;SDS011;1703;51.964;7.642;2022-09-29T01:49:19;19.80;;;13.90;;
3379;SDS011;1703;51.964;7.642;2022-09-29T01:51:49;17.23;;;12.70;;
3379;SDS011;1703;51.964;7.642;2022-09-29T01:54:20;18.53;;;13.93;;
3379;SDS011;1703;51.964;7.642;2022-09-29T01:56:50;15.77;;;12.43;;
3379;SDS011;1703;51.964;7.642;2022-09-29T01:59:23;20.07;;;13.17;;
3379;SDS011;1703;51.964;7.642;2022-09-29T02:01:56;16.87;;;12.80;;
3379;SDS011;1703;51.964;7.642;2022-09-29T02:04:30;17.77;;;14.80;;
3379;SDS011;1703;51.964;7.642;2022-09-29T02:07:00;18.73;;;13.37;;
3379;SDS011;1703;51.964;7.642;2022-09-29T02:09:33;18.00;;;13.40;;
3379;SDS011;1703;51.964;7.642;2022-09-29T02:12:03;16.80;;;13.40;;
3379;SDS011;1703;51.964;7.642;2022-09-29T02:14:34;17.47;;;13.87;;
3379;SDS011;1703;51.964;7.642;2022-09-29T02:17:07;15.70;;;13.37;;
3379;SDS011;1703;51.964;7.642;2022-09-29T02:19:37;22.50;;;15.77;;
3379;SDS011;1703;51.964;7.642;2022-09-29T02:22:07;18.27;;;14.13;;
3379;SDS011;1703;51.964;7.642;2022-09-29T02:24:34;17.43;;;14.27;;
3379;SDS011;1703;51.964;7.642;2022-09-29T02:27:01;17.20;;;12.43;;
3379;SDS011;1703;51.964;7.642;2022-09-29T02:33:18;16.00;;;14.17;;
3379;SDS011;1703;51.964;7.642;2022-09-29T02:35:50;21.33;;;13.70;;
3379;SDS011;1703;51.964;7.642;2022-09-29T02:38:28;17.37;;;13.57;;
3379;SDS011;1703;51.964;7.642;2022-09-29T02:41:04;17.30;;;11.77;;
3379;SDS011;1703;51.964;7.642;2022-09-29T02:43:40;16.50;;;12.70;;
3379;SDS011;1703;51.964;7.642;2022-09-29T02:46:23;18.50;;;13.67;;
3379;SDS011;1703;51.964;7.642;2022-09-29T02:49:07;20.83;;;12.90;;
3379;SDS011;1703;51.964;7.642;2022-09-29T02:51:50;18.50;;;14.47;;
3379;SDS011;1703;51.964;7.642;2022-09-29T02:57:14;18.37;;;13.67;;
3379;SDS011;1703;51.964;7.642;2022-09-29T02:59:47;19.30;;;14.03;;
3379;SDS011;1703;51.964;7.642;2022-09-29T03:02:22;18.67;;;16.23;;
3379;SDS011;1703;51.964;7.642;2022-09-29T03:04:51;20.40;;;13.67;;
3379;SDS011;1703;51.964;7.642;2022-09-29T03:07:19;18.77;;;15.30;;
3379;SDS011;1703;51.964;7.642;2022-09-29T03:09:46;18.83;;;13.90;;
3379;SDS011;1703;51.964;7.642;2022-09-29T03:12:13;18.97;;;14.87;;
3379;SDS011;1703;51.964;7.642;2022-09-29T03:14:42;16.73;;;13.23;;
3379;SDS011;1703;51.964;7.642;2022-09-29T03:17:09;16.97;;;13.83;;
3379;SDS011;1703;51.964;7.642;2022-09-29T03:19:36;19.90;;;15.87;;
3379;SDS011;1703;51.964;7.642;2022-09-29T03:22:04;22.13;;;14.63;;
3379;SDS011;1703;51.964;7.642;2022-09-29T03:24:30;19.17;;;14.43;;
3379;SDS011;1703;51.964;7.642;2022-09-29T03:26:57;19.43;;;14.30;;
3379;SDS011;1703;51.964;7.642;2022-09-29T03:29:24;20.47;;;14.17;;
3379;SDS011;1703;51.964;7.642;2022-09-29T03:31:51;18.40;;;13.60;;
3379;SDS011;1703;51.964;7.642;2022-09-29T03:34:18;21.93;;;15.30;;
3379;SDS011;1703;51.964;7.642;2022-09-29T03:36:45;20.00;;;14.50;;
3379;SDS011;1703;51.964;7.642;2022-09-29T03:39:13;18.50;;;14.50;;
3379;SDS011;1703;51.964;7.642;2022-09-29T03:41:40;23.77;;;13.63;;
3379;SDS011;1703;51.964;7.642;2022-09-29T03:44:07;14.87;;;12.37;;
3379;SDS011;1703;51.964;7.642;2022-09-29T03:46:33;19.87;;;13.93;;
3379;SDS011;1703;51.964;7.642;2022-09-29T03:49:00;22.63;;;14.30;;
3379;SDS011;1703;51.964;7.642;2022-09-29T03:51:27;16.77;;;12.60;;
3379;SDS011;1703;51.964;7.642;2022-09-29T03:53:54;17.03;;;13.40;;
3379;SDS011;1703;51.964;7.642;2022-09-29T03:56:22;18.63;;;13.80;;
3379;SDS011;1703;51.964;7.642;2022-09-29T03:58:49;19.50;;;14.33;;
3379;SDS011;1703;51.964;7.642;2022-09-29T04:01:16;18.03;;;14.60;;
3379;SDS011;1703;51.964;7.642;2022-09-29T04:03:42;21.43;;;15.03;;
3379;SDS011;1703;51.964;7.642;2022-09-29T04:06:09;17.13;;;14.37;;
3379;SDS011;1703;51.964;7.642;2022-09-29T04:08:36;18.83;;;13.07;;
3379;SDS011;1703;51.964;7.642;2022-09-29T04:11:03;25.93;;;15.67;;
3379;SDS011;1703;51.964;7.642;2022-09-29T04:13:32;23.57;;;14.10;;
3379;SDS011;1703;51.964;7.642;2022-09-29T04:15:59;20.10;;;13.90;;
3379;SDS011;1703;51.964;7.642;2022-09-29T04:18:26;20.33;;;15.93;;
3379;SDS011;1703;51.964;7.642;2022-09-29T04:20:54;20.07;;;15.97;;
3379;SDS011;1703;51.964;7.642;2022-09-29T04:23:25;20.53;;;14.20;;
3379;SDS011;1703;51.964;7.642;2022-09-29T04:25:51;20.50;;;15.00;;
3379;SDS011;1703;51.964;7.642;2022-09-29T04:28:18;20.93;;;15.00;;
3379;SDS011;1703;51.964;7.642;2022-09-29T04:30:46;16.70;;;13.53;;
3379;SDS011;1703;51.964;7.642;2022-09-29T04:33:13;22.77;;;14.40;;
3379;SDS011;1703;51.964;7.642;2022-09-29T04:35:40;19.43;;;14.33;;
3379;SDS011;1703;51.964;7.642;2022-09-29T04:38:07;21.40;;;14.40;;
3379;SDS011;1703;51.964;7.642;2022-09-29T04:40:34;19.17;;;14.20;;
3379;SDS011;1703;51.964;7.642;2022-09-29T04:43:02;25.07;;;16.60;;
3379;SDS011;1703;51.964;7.642;2022-09-29T04:45:29;21.07;;;14.83;;
3379;SDS011;1703;51.964;7.642;2022-09-29T04:47:58;27.13;;;15.37;;
3379;SDS011;1703;51.964;7.642;2022-09-29T04:50:24;20.70;;;14.40;;
3379;SDS011;1703;51.964;7.642;2022-09-29T04:52:51;21.93;;;14.93;;
3379;SDS011;1703;51.964;7.642;2022-09-29T04:55:18;20.40;;;13.47;;
3379;SDS011;1703;51.964;7.642;2022-09-29T04:57:45;20.80;;;14.33;;
3379;SDS011;1703;51.964;7.642;2022-09-29T05:00:13;20.43;;;14.40;;
3379;SDS011;1703;51.964;7.642;2022-09-29T05:02:40;24.87;;;14.43;;
3379;SDS011;1703;51.964;7.642;2022-09-29T05:05:09;16.43;;;14.43;;
3379;SDS011;1703;51.964;7.642;2022-09-29T05:07:36;28.03;;;15.40;;
3379;SDS011;1703;51.964;7.642;2022-09-29T05:10:05;22.93;;;14.87;;
3379;SDS011;1703;51.964;7.642;2022-09-29T05:12:33;22.90;;;15.20;;
3379;SDS011;1703;51.964;7.642;2022-09-29T05:15:00;27.80;;;15.70;;
3379;SDS011;1703;51.964;7.642;2022-09-29T05:17:28;19.07;;;13.60;;
3379;SDS011;1703;51.964;7.642;2022-09-29T05:19:55;23.53;;;14.93;;
3379;SDS011;1703;51.964;7.642;2022-09-29T05:22:23;17.57;;;13.40;;
3379;SDS011;1703;51.964;7.642;2022-09-29T05:24:50;18.27;;;14.10;;
3379;SDS011;1703;51.964;7.642;2022-09-29T05:27:17;19.33;;;13.77;;
3379;SDS011;1703;51.964;7.642;2022-09-29T05:29:44;20.87;;;13.67;;
3379;SDS011;1703;51.964;7.642;2022-09-29T05:32:10;17.80;;;12.50;;
3379;SDS011;1703;51.964;7.642;2022-09-29T05:34:37;16.20;;;12.20;;
3379;SDS011;1703;51.964;7.642;2022-09-29T05:37:04;32.77;;;14.93;;
3379;SDS011;1703;51.964;7.642;2022-09-29T05:39:32;16.30;;;13.33;;
3379;SDS011;1703;51.964;7.642;2022-09-29T05:42:01;16.30;;;13.30;;
3379;SDS011;1703;51.964;7.642;2022-09-29T05:44:28;16.80;;;13.43;;
3379;SDS011;1703;51.964;7.642;2022-09-29T05:46:55;15.37;;;12.33;;
3379;SDS011;1703;51.964;7.642;2022-09-29T05:49:21;16.93;;;13.40;;
3379;SDS011;1703;51.964;7.642;2022-09-29T05:51:48;18.03;;;14.23;;
3379;SDS011;1703;51.964;7.642;2022-09-29T05:54:15;16.07;;;13.00;;
3379;SDS011;1703;51.964;7.642;2022-09-29T05:56:43;18.03;;;12.90;;
3379;SDS011;1703;51.964;7.642;2022-09-29T05:59:10;24.70;;;13.27;;
3379;SDS011;1703;51.964;7.642;2022-09-29T06:01:37;21.43;;;14.30;;
3379;SDS011;1703;51.964;7.642;2022-09-29T06:04:04;18.10;;;14.30;;
3379;SDS011;1703;51.964;7.642;2022-09-29T06:06:31;19.60;;;14.97;;
3379;SDS011;1703;51.964;7.642;2022-09-29T06:09:00;19.63;;;14.40;;
3379;SDS011;1703;51.964;7.642;2022-09-29T06:11:29;18.27;;;14.80;;
3379;SDS011;1703;51.964;7.642;2022-09-29T06:13:58;19.70;;;14.30;;
3379;SDS011;1703;51.964;7.642;2022-09-29T06:16:28;19.10;;;13.70;;
3379;SDS011;1703;51.964;7.642;2022-09-29T06:18:57;23.60;;;15.40;;
3379;SDS011;1703;51.964;7.642;2022-09-29T06:21:25;21.93;;;15.27;;
3379;SDS011;1703;51.964;7.642;2022-09-29T06:23:53;20.23;;;14.40;;
3379;SDS011;1703;51.964;7.642;2022-09-29T06:26:21;21.87;;;13.30;;
3379;SDS011;1703;51.964;7.642;2022-09-29T06:28:49;19.93;;;13.40;;
3379;SDS011;1703;51.964;7.642;2022-09-29T06:31:17;21.80;;;14.20;;
3379;SDS011;1703;51.964;7.642;2022-09-29T06:33:46;19.93;;;14.30;;
3379;SDS011;1703;51.964;7.642;2022-09-29T06:36:14;18.77;;;14.10;;
3379;SDS011;1703;51.964;7.642;2022-09-29T06:39:00;21.53;;;14.80;;
3379;SDS011;1703;51.964;7.642;2022-09-29T06:41:27;21.33;;;16.53;;
3379;SDS011;1703;51.964;7.642;2022-09-29T06:43:54;20.00;;;14.90;;
3379;SDS011;1703;51.964;7.642;2022-09-29T06:46:23;29.07;;;16.03;;
3379;SDS011;1703;51.964;7.642;2022-09-29T06:48:51;22.87;;;15.53;;
3379;SDS011;1703;51.964;7.642;2022-09-29T06:51:18;20.17;;;15.63;;
3379;SDS011;1703;51.964;7.642;2022-09-29T06:53:46;22.40;;;15.20;;
3379;SDS011;1703;51.964;7.642;2022-09-29T06:56:13;22.20;;;14.27;;
3379;SDS011;1703;51.964;7.642;2022-09-29T06:58:40;27.53;;;15.43;;
3379;SDS011;1703;51.964;7.642;2022-09-29T07:01:08;23.00;;;15.40;;
3379;SDS011;1703;51.964;7.642;2022-09-29T07:03:38;22.40;;;14.80;;
3379;SDS011;1703;51.964;7.642;2022-09-29T07:06:05;21.83;;;15.10;;
3379;SDS011;1703;51.964;7.642;2022-09-29T07:08:33;27.63;;;16.93;;
3379;SDS011;1703;51.964;7.642;2022-09-29T07:11:02;23.00;;;16.93;;
3379;SDS011;1703;51.964;7.642;2022-09-29T07:13:29;25.30;;;16.40;;
3379;SDS011;1703;51.964;7.642;2022-09-29T07:15:56;23.20;;;14.90;;
3379;SDS011;1703;51.964;7.642;2022-09-29T07:18:30;17.67;;;14.77;;
3379;SDS011;1703;51.964;7.642;2022-09-29T07:21:00;20.03;;;14.07;;
3379;SDS011;1703;51.964;7.642;2022-09-29T07:23:26;20.27;;;14.97;;
3379;SDS011;1703;51.964;7.642;2022-09-29T07:25:53;20.33;;;14.67;;
3379;SDS011;1703;51.964;7.642;2022-09-29T07:28:20;17.53;;;14.17;;
3379;SDS011;1703;51.964;7.642;2022-09-29T07:30:56;23.33;;;15.53;;
3379;SDS011;1703;51.964;7.642;2022-09-29T07:33:23;25.07;;;16.17;;
3379;SDS011;1703;51.964;7.642;2022-09-29T07:35:50;20.47;;;15.90;;
3379;SDS011;1703;51.964;7.642;2022-09-29T07:38:19;25.33;;;15.17;;
3379;SDS011;1703;51.964;7.642;2022-09-29T07:40:46;25.37;;;17.60;;
3379;SDS011;1703;51.964;7.642;2022-09-29T07:43:12;20.10;;;15.17;;
3379;SDS011;1703;51.964;7.642;2022-09-29T07:45:44;21.37;;;15.73;;
3379;SDS011;1703;51.964;7.642;2022-09-29T07:48:12;17.47;;;13.33;;
3379;SDS011;1703;51.964;7.642;2022-09-29T07:50:40;18.70;;;14.10;;
3379;SDS011;1703;51.964;7.642;2022-09-29T07:53:07;18.43;;;12.20;;
3379;SDS011;1703;51.964;7.642;2022-09-29T07:55:35;20.67;;;14.00;;
3379;SDS011;1703;51.964;7.642;2022-09-29T07:58:02;17.50;;;12.87;;
3379;SDS011;1703;51.964;7.642;2022-09-29T08:00:29;15.93;;;12.03;;
3379;SDS011;1703;51.964;7.642;2022-09-29T08:02:58;22.27;;;14.20;;
3379;SDS011;1703;51.964;7.642;2022-09-29T08:05:26;26.13;;;15.20;;
3379;SDS011;1703;51.964;7.642;2022-09-29T08:07:53;21.43;;;15.37;;
3379;SDS011;1703;51.964;7.642;2022-09-29T08:10:20;23.13;;;15.90;;
3379;SDS011;1703;51.964;7.642;2022-09-29T08:12:48;16.10;;;13.17;;
3379;SDS011;1703;51.964;7.642;2022-09-29T08:15:15;16.13;;;13.07;;
3379;SDS011;1703;51.964;7.642;2022-09-29T08:17:42;20.60;;;12.97;;
3379;SDS011;1703;51.964;7.642;2022-09-29T08:20:09;18.87;;;13.57;;
3379;SDS011;1703;51.964;7.642;2022-09-29T08:22:35;30.23;;;13.37;;
3379;SDS011;1703;51.964;7.642;2022-09-29T08:25:02;18.87;;;13.83;;
3379;SDS011;1703;51.964;7.642;2022-09-29T08:27:29;21.40;;;12.90;;
3379;SDS011;1703;51.964;7.642;2022-09-29T08:29:58;16.67;;;13.83;;
3379;SDS011;1703;51.964;7.642;2022-09-29T08:32:25;18.97;;;12.67;;
3379;SDS011;1703;51.964;7.642;2022-09-29T08:34:52;19.67;;;12.87;;
3379;SDS011;1703;51.964;7.642;2022-09-29T08:37:19;19.27;;;13.30;;
3379;SDS011;1703;51.964;7.642;2022-09-29T08:39:46;22.70;;;16.67;;
3379;SDS011;1703;51.964;7.642;2022-09-29T08:42:14;16.23;;;13.03;;
3379;SDS011;1703;51.964;7.642;2022-09-29T08:44:47;15.97;;;13.73;;
3379;SDS011;1703;51.964;7.642;2022-09-29T08:47:23;19.57;;;13.53;;
3379;SDS011;1703;51.964;7.642;2022-09-29T08:49:55;16.83;;;13.97;;
3379;SDS011;1703;51.964;7.642;2022-09-29T08:52:25;18.40;;;13.90;;
3379;SDS011;1703;51.964;7.642;2022-09-29T08:54:56;21.00;;;14.97;;
3379;SDS011;1703;51.964;7.642;2022-09-29T08:57:27;27.07;;;13.63;;
3379;SDS011;1703;51.964;7.642;2022-09-29T08:59:56;18.83;;;14.27;;
3379;SDS011;1703;51.964;7.642;2022-09-29T09:05:40;14.57;;;12.20;;
3379;SDS011;1703;51.964;7.642;2022-09-29T09:08:18;19.70;;;12.97;;
3379;SDS011;1703;51.964;7.642;2022-09-29T09:10:58;15.07;;;12.20;;
3379;SDS011;1703;51.964;7.642;2022-09-29T09:13:40;17.03;;;12.93;;
3379;SDS011;1703;51.964;7.642;2022-09-29T09:16:19;15.40;;;11.70;;
3379;SDS011;1703;51.964;7.642;2022-09-29T09:18:58;15.20;;;11.60;;
3379;SDS011;1703;51.964;7.642;2022-09-29T09:21:39;13.37;;;11.43;;
3379;SDS011;1703;51.964;7.642;2022-09-29T09:24:11;20.43;;;12.90;;
3379;SDS011;1703;51.964;7.642;2022-09-29T09:26:42;25.90;;;14.33;;
3379;SDS011;1703;51.964;7.642;2022-09-29T09:29:12;21.60;;;12.93;;
3379;SDS011;1703;51.964;7.642;2022-09-29T09:31:48;21.17;;;12.37;;
3379;SDS011;1703;51.964;7.642;2022-09-29T09:34:24;20.63;;;12.43;;
3379;SDS011;1703;51.964;7.642;2022-09-29T09:36:54;14.30;;;11.73;;
3379;SDS011;1703;51.964;7.642;2022-09-29T09:39:25;15.60;;;12.20;;
3379;SDS011;1703;51.964;7.642;2022-09-29T09:41:55;13.00;;;11.27;;
3379;SDS011;1703;51.964;7.642;2022-09-29T09:44:25;27.83;;;10.93;;
3379;SDS011;1703;51.964;7.642;2022-09-29T09:46:58;15.20;;;11.37;;
3379;SDS011;1703;51.964;7.642;2022-09-29T09:49:31;15.80;;;11.90;;
3379;SDS011;1703;51.964;7.642;2022-09-29T09:52:03;15.77;;;11.70;;
3379;SDS011;1703;51.964;7.642;2022-09-29T09:54:37;19.20;;;11.77;;
3379;SDS011;1703;51.964;7.642;2022-09-29T09:57:09;17.20;;;12.10;;
3379;SDS011;1703;51.964;7.642;2022-09-29T09:59:56;14.33;;;10.83;;
3379;SDS011;1703;51.964;7.642;2022-09-29T10:02:37;16.90;;;10.77;;
3379;SDS011;1703;51.964;7.642;2022-09-29T10:05:11;13.93;;;10.63;;
3379;SDS011;1703;51.964;7.642;2022-09-29T10:07:40;18.33;;;12.03;;
3379;SDS011;1703;51.964;7.642;2022-09-29T10:10:13;12.17;;;10.97;;
3379;SDS011;1703;51.964;7.642;2022-09-29T10:12:43;16.27;;;11.13;;
3379;SDS011;1703;51.964;7.642;2022-09-29T10:15:20;15.10;;;9.87;;
3379;SDS011;1703;51.964;7.642;2022-09-29T10:17:54;11.07;;;9.10;;
3379;SDS011;1703;51.964;7.642;2022-09-29T10:20:30;11.37;;;8.10;;
3379;SDS011;1703;51.964;7.642;2022-09-29T10:23:17;12.80;;;8.00;;
3379;SDS011;1703;51.964;7.642;2022-09-29T10:26:03;12.70;;;8.20;;
3379;SDS011;1703;51.964;7.642;2022-09-29T10:28:38;12.00;;;7.50;;
3379;SDS011;1703;51.964;7.642;2022-09-29T10:31:16;14.80;;;8.03;;
3379;SDS011;1703;51.964;7.642;2022-09-29T10:33:46;10.23;;;8.70;;
3379;SDS011;1703;51.964;7.642;2022-09-29T10:36:18;14.33;;;8.27;;
3379;SDS011;1703;51.964;7.642;2022-09-29T10:38:46;14.97;;;9.00;;
3379;SDS011;1703;51.964;7.642;2022-09-29T10:41:15;12.30;;;9.93;;
3379;SDS011;1703;51.964;7.642;2022-09-29T10:43:44;8.53;;;7.23;;
3379;SDS011;1703;51.964;7.642;2022-09-29T10:49:13;11.13;;;6.37;;
3379;SDS011;1703;51.964;7.642;2022-09-29T10:51:47;10.43;;;8.07;;
3379;SDS011;1703;51.964;7.642;2022-09-29T10:54:20;6.77;;;6.13;;
3379;SDS011;1703;51.964;7.642;2022-09-29T10:56:50;7.47;;;6.63;;
3379;SDS011;1703;51.964;7.642;2022-09-29T10:59:18;11.00;;;7.80;;
3379;SDS011;1703;51.964;7.642;2022-09-29T11:01:48;10.67;;;7.30;;
3379;SDS011;1703;51.964;7.642;2022-09-29T11:04:17;7.50;;;5.90;;
3379;SDS011;1703;51.964;7.642;2022-09-29T11:06:49;9.20;;;6.27;;
3379;SDS011;1703;51.964;7.642;2022-09-29T11:09:26;6.93;;;6.20;;
3379;SDS011;1703;51.964;7.642;2022-09-29T11:11:55;8.80;;;4.63;;
3379;SDS011;1703;51.964;7.642;2022-09-29T11:14:23;6.30;;;4.90;;
3379;SDS011;1703;51.964;7.642;2022-09-29T11:16:52;7.87;;;5.90;;
3379;SDS011;1703;51.964;7.642;2022-09-29T11:19:20;7.40;;;4.70;;
3379;SDS011;1703;51.964;7.642;2022-09-29T11:21:55;12.10;;;5.30;;
3379;SDS011;1703;51.964;7.642;2022-09-29T11:27:55;6.47;;;5.97;;
3379;SDS011;1703;51.964;7.642;2022-09-29T11:30:39;6.00;;;5.50;;
3379;SDS011;1703;51.964;7.642;2022-09-29T11:33:18;6.73;;;6.13;;
3379;SDS011;1703;51.964;7.642;2022-09-29T11:35:54;6.27;;;5.30;;
3379;SDS011;1703;51.964;7.642;2022-09-29T11:38:32;7.20;;;5.63;;
3379;SDS011;1703;51.964;7.642;2022-09-29T11:41:21;5.93;;;5.43;;
3379;SDS011;1703;51.964;7.642;2022-09-29T11:44:00;7.03;;;6.00;;
3379;SDS011;1703;51.964;7.642;2022-09-29T11:46:44;7.63;;;6.30;;
3379;SDS011;1703;51.964;7.642;2022-09-29T11:49:39;7.40;;;6.70;;
3379;SDS011;1703;51.964;7.642;2022-09-29T11:52:31;9.20;;;6.27;;
3379;SDS011;1703;51.964;7.642;2022-09-29T11:55:17;6.70;;;6.17;;
3379;SDS011;1703;51.964;7.642;2022-09-29T11:57:55;7.53;;;6.40;;
3379;SDS011;1703;51.964;7.642;2022-09-29T12:00:34;7.13;;;6.40;;
3379;SDS011;1703;51.964;7.642;2022-09-29T12:03:15;5.50;;;5.10;;
3379;SDS011;1703;51.964;7.642;2022-09-29T12:05:50;5.17;;;4.77;;
3379;SDS011;1703;51.964;7.642;2022-09-29T12:08:45;3.70;;;2.50;;
3379;SDS011;1703;51.964;7.642;2022-09-29T12:11:24;3.07;;;2.80;;
3379;SDS011;1703;51.964;7.642;2022-09-29T12:14:01;3.13;;;2.97;;
3379;SDS011;1703;51.964;7.642;2022-09-29T12:16:35;6.90;;;3.57;;
3379;SDS011;1703;51.964;7.642;2022-09-29T12:19:08;3.30;;;3.10;;
3379;SDS011;1703;51.964;7.642;2022-09-29T12:21:45;4.90;;;3.37;;
3379;SDS011;1703;51.964;7.642;2022-09-29T12:24:31;3.70;;;3.00;;
3379;SDS011;1703;51.964;7.642;2022-09-29T12:27:02;5.00;;;3.20;;
3379;SDS011;1703;51.964;7.642;2022-09-29T12:29:32;4.40;;;3.27;;
3379;SDS011;1703;51.964;7.642;2022-09-29T12:32:03;3.90;;;3.23;;
3379;SDS011;1703;51.964;7.642;2022-09-29T12:34:37;3.53;;;3.17;;
3379;SDS011;1703;51.964;7.642;2022-09-29T12:37:12;3.53;;;3.10;;
3379;SDS011;1703;51.964;7.642;2022-09-29T12:39:45;3.20;;;2.90;;
3379;SDS011;1703;51.964;7.642;2022-09-29T12:42:31;2.43;;;2.23;;
3379;SDS011;1703;51.964;7.642;2022-09-29T12:45:07;4.53;;;3.03;;
3379;SDS011;1703;51.964;7.642;2022-09-29T12:47:46;2.63;;;2.53;;
3379;SDS011;1703;51.964;7.642;2022-09-29T12:50:17;2.40;;;2.20;;
3379;SDS011;1703;51.964;7.642;2022-09-29T12:52:48;3.20;;;2.53;;
3379;SDS011;1703;51.964;7.642;2022-09-29T12:55:22;4.07;;;2.23;;
3379;SDS011;1703;51.964;7.642;2022-09-29T12:57:56;2.10;;;2.00;;
3379;SDS011;1703;51.964;7.642;2022-09-29T13:00:28;3.80;;;1.87;;
3379;SDS011;1703;51.964;7.642;2022-09-29T13:06:13;1.90;;;1.80;;
3379;SDS011;1703;51.964;7.642;2022-09-29T13:09:19;2.33;;;2.13;;
3379;SDS011;1703;51.964;7.642;2022-09-29T13:12:28;9.90;;;1.80;;
3379;SDS011;1703;51.964;7.642;2022-09-29T13:15:29;2.13;;;1.93;;
3379;SDS011;1703;51.964;7.642;2022-09-29T13:18:13;2.10;;;1.90;;
3379;SDS011;1703;51.964;7.642;2022-09-29T13:21:08;3.07;;;2.13;;
3379;SDS011;1703;51.964;7.642;2022-09-29T13:26:39;8.70;;;2.60;;
3379;SDS011;1703;51.964;7.642;2022-09-29T13:29:16;3.70;;;2.03;;
3379;SDS011;1703;51.964;7.642;2022-09-29T13:31:47;2.60;;;2.23;;
3379;SDS011;1703;51.964;7.642;2022-09-29T13:34:17;2.50;;;2.30;;
3379;SDS011;1703;51.964;7.642;2022-09-29T13:36:49;2.07;;;1.93;;
3379;SDS011;1703;51.964;7.642;2022-09-29T13:39:19;2.10;;;2.00;;
3379;SDS011;1703;51.964;7.642;2022-09-29T13:41:51;2.80;;;2.07;;
3379;SDS011;1703;51.964;7.642;2022-09-29T13:44:23;2.40;;;2.20;;
3379;SDS011;1703;51.964;7.642;2022-09-29T13:46:53;3.00;;;2.30;;
3379;SDS011;1703;51.964;7.642;2022-09-29T13:49:25;6.10;;;2.00;;
3379;SDS011;1703;51.964;7.642;2022-09-29T13:51:54;2.10;;;1.80;;
3379;SDS011;1703;51.964;7.642;2022-09-29T13:54:23;2.60;;;1.90;;
3379;SDS011;1703;51.964;7.642;2022-09-29T13:56:58;3.03;;;2.03;;
3379;SDS011;1703;51.964;7.642;2022-09-29T14:03:05;2.60;;;2.00;;
3379;SDS011;1703;51.964;7.642;2022-09-29T14:05:54;2.30;;;2.13;;
3379;SDS011;1703;51.964;7.642;2022-09-29T14:08:35;6.90;;;2.57;;
3379;SDS011;1703;51.964;7.642;2022-09-29T14:11:10;1.70;;;1.60;;
3379;SDS011;1703;51.964;7.642;2022-09-29T14:13:43;2.73;;;2.07;;
3379;SDS011;1703;51.964;7.642;2022-09-29T14:16:21;3.20;;;2.90;;
3379;SDS011;1703;51.964;7.642;2022-09-29T14:19:05;6.00;;;1.70;;
3379;SDS011;1703;51.964;7.642;2022-09-29T14:21:46;1.83;;;1.57;;
3379;SDS011;1703;51.964;7.642;2022-09-29T14:27:28;4.13;;;2.10;;
3379;SDS011;1703;51.964;7.642;2022-09-29T14:29:59;3.03;;;2.00;;
3379;SDS011;1703;51.964;7.642;2022-09-29T14:32:37;1.80;;;1.70;;
3379;SDS011;1703;51.964;7.642;2022-09-29T14:35:13;1.77;;;1.67;;
3379;SDS011;1703;51.964;7.642;2022-09-29T14:37:43;3.10;;;1.63;;
3379;SDS011;1703;51.964;7.642;2022-09-29T14:40:13;3.33;;;2.30;;
3379;SDS011;1703;51.964;7.642;2022-09-29T14:43:02;2.90;;;1.70;;
3379;SDS011;1703;51.964;7.642;2022-09-29T14:45:44;6.83;;;1.73;;
3379;SDS011;1703;51.964;7.642;2022-09-29T14:48:42;7.07;;;2.17;;
3379;SDS011;1703;51.964;7.642;2022-09-29T14:51:38;3.60;;;2.27;;
3379;SDS011;1703;51.964;7.642;2022-09-29T14:54:31;5.53;;;2.13;;
3379;SDS011;1703;51.964;7.642;2022-09-29T14:57:10;2.43;;;2.33;;
3379;SDS011;1703;51.964;7.642;2022-09-29T15:00:01;2.60;;;2.13;;
3379;SDS011;1703;51.964;7.642;2022-09-29T15:02:35;1.77;;;1.67;;
3379;SDS011;1703;51.964;7.642;2022-09-29T15:05:23;3.00;;;2.33;;
3379;SDS011;1703;51.964;7.642;2022-09-29T15:07:53;1.80;;;1.67;;
3379;SDS011;1703;51.964;7.642;2022-09-29T15:10:23;2.20;;;2.07;;
3379;SDS011;1703;51.964;7.642;2022-09-29T15:12:52;2.30;;;2.10;;
3379;SDS011;1703;51.964;7.642;2022-09-29T15:15:39;2.10;;;1.90;;
3379;SDS011;1703;51.964;7.642;2022-09-29T15:18:15;3.60;;;2.30;;
3379;SDS011;1703;51.964;7.642;2022-09-29T15:20:54;2.30;;;1.90;;
3379;SDS011;1703;51.964;7.642;2022-09-29T15:23:34;5.03;;;2.33;;
3379;SDS011;1703;51.964;7.642;2022-09-29T15:26:24;2.10;;;2.00;;
3379;SDS011;1703;51.964;7.642;2022-09-29T15:28:56;2.60;;;2.40;;
3379;SDS011;1703;51.964;7.642;2022-09-29T15:31:25;2.50;;;1.90;;
3379;SDS011;1703;51.964;7.642;2022-09-29T15:33:54;2.20;;;1.93;;
3379;SDS011;1703;51.964;7.642;2022-09-29T15:36:22;2.47;;;2.30;;
3379;SDS011;1703;51.964;7.642;2022-09-29T15:38:52;4.63;;;2.83;;
3379;SDS011;1703;51.964;7.642;2022-09-29T15:41:21;1.93;;;1.77;;
3379;SDS011;1703;51.964;7.642;2022-09-29T15:43:53;3.90;;;2.63;;
3379;SDS011;1703;51.964;7.642;2022-09-29T15:46:22;5.50;;;2.53;;
3379;SDS011;1703;51.964;7.642;2022-09-29T15:49:08;2.00;;;1.90;;
3379;SDS011;1703;51.964;7.642;2022-09-29T15:51:38;3.30;;;2.00;;
3379;SDS011;1703;51.964;7.642;2022-09-29T15:54:09;6.83;;;2.17;;